Time;durP1;ratioP1;P1;durP2;ratioP2;P2;SDS_P1;SDS_P2;PMS_P1;PMS_P2;Temp;Humidity;BMP_temperature;BMP_pressure;BME280_temperature;BME280_humidity;BME280_pressure;Samples;Min_cycle;Max_cycle;Signal;HPM_P1;HPM_P2
2023/11/26 00:01:45;;;;;;;13.87;3.47;;;;;;;;;;5071068;28;20051;-81
2023/11/26 00:04:10;;;;;;;11.23;3.30;;;;;;;;;;5069181;28;20040;-82
2023/11/26 00:06:35;;;;;;;10.80;3.13;;;;;;;;;;5071849;28;20013;-82
2023/11/26 00:09:00;;;;;;;11.07;2.93;;;;;;;;;;5070418;28;20050;-82
2023/11/26 00:11:26;;;;;;;13.20;3.67;;;;;;;;;;5070963;28;20051;-81
2023/11/26 00:13:51;;;;;;;10.20;3.03;;;;;;;;;;5071085;28;20088;-82
2023/11/26 00:16:16;;;;;;;8.53;3.10;;;;;;;;;;5071125;28;20024;-81
2023/11/26 00:18:41;;;;;;;15.53;3.50;;;;;;;;;;5072638;28;20443;-82
2023/11/26 00:21:07;;;;;;;8.60;2.87;;;;;;;;;;5056848;28;20463;-81
2023/11/26 00:23:32;;;;;;;15.03;3.20;;;;;;;;;;5071086;28;20376;-81
2023/11/26 00:25:57;;;;;;;13.50;4.17;;;;;;;;;;5070866;28;20031;-81
2023/11/26 00:28:22;;;;;;;12.47;4.13;;;;;;;;;;5070797;28;20025;-82
2023/11/26 00:30:48;;;;;;;12.90;3.87;;;;;;;;;;5072181;28;20474;-82
2023/11/26 00:33:15;;;;;;;19.37;3.63;;;;;;;;;;5069376;28;20107;-81
2023/11/26 00:35:40;;;;;;;12.73;3.30;;;;;;;;;;5070863;28;20112;-82
2023/11/26 00:38:05;;;;;;;7.87;2.83;;;;;;;;;;5070810;28;20078;-81
2023/11/26 00:40:31;;;;;;;11.70;3.60;;;;;;;;;;5070297;28;20372;-82
2023/11/26 00:42:56;;;;;;;10.67;3.17;;;;;;;;;;5071952;28;20414;-81
2023/11/26 00:45:21;;;;;;;7.40;2.93;;;;;;;;;;5071181;28;20482;-82
2023/11/26 00:47:46;;;;;;;8.13;3.20;;;;;;;;;;5070695;28;20074;-82
2023/11/26 00:50:12;;;;;;;10.33;3.13;;;;;;;;;;5070660;28;20047;-81
2023/11/26 00:52:38;;;;;;;7.50;2.70;;;;;;;;;;5072103;28;20412;-82
2023/11/26 00:55:03;;;;;;;13.93;3.10;;;;;;;;;;5056510;28;20052;-81
2023/11/26 00:57:29;;;;;;;8.87;2.77;;;;;;;;;;5070669;28;20035;-82
2023/11/26 00:59:54;;;;;;;7.77;2.50;;;;;;;;;;5070527;28;20020;-81
2023/11/26 01:02:21;;;;;;;12.43;3.17;;;;;;;;;;5070303;28;20107;-82
2023/11/26 01:04:47;;;;;;;12.77;3.27;;;;;;;;;;5070408;28;20028;-82
2023/11/26 01:07:12;;;;;;;10.23;3.20;;;;;;;;;;5070397;28;20115;-82
2023/11/26 01:09:37;;;;;;;12.73;3.20;;;;;;;;;;5070547;28;20032;-82
2023/11/26 01:12:03;;;;;;;8.13;2.80;;;;;;;;;;5070436;28;20016;-81
2023/11/26 01:14:29;;;;;;;12.87;3.07;;;;;;;;;;5070356;28;20396;-82
2023/11/26 01:16:54;;;;;;;8.00;2.80;;;;;;;;;;5061807;28;20381;-81
2023/11/26 01:19:19;;;;;;;9.17;3.20;;;;;;;;;;5070036;28;20482;-81
2023/11/26 01:21:44;;;;;;;11.83;3.30;;;;;;;;;;5070279;28;20028;-82
2023/11/26 01:24:09;;;;;;;10.90;4.27;;;;;;;;;;5056574;28;20021;-82
2023/11/26 01:26:35;;;;;;;9.70;3.53;;;;;;;;;;5057490;28;20025;-82
2023/11/26 01:29:01;;;;;;;12.13;3.23;;;;;;;;;;5068875;28;20032;-81
2023/11/26 01:31:29;;;;;;;15.83;3.53;;;;;;;;;;5070410;28;20025;-82
2023/11/26 01:33:54;;;;;;;7.17;2.87;;;;;;;;;;5067634;28;20031;-82
2023/11/26 01:36:19;;;;;;;9.00;3.03;;;;;;;;;;5050133;28;20496;-82
2023/11/26 01:38:45;;;;;;;13.07;3.20;;;;;;;;;;5064728;28;20027;-81
2023/11/26 01:41:10;;;;;;;8.13;3.20;;;;;;;;;;5071834;28;20188;-82
2023/11/26 01:43:35;;;;;;;13.23;3.30;;;;;;;;;;5070230;28;20525;-81
2023/11/26 01:46:07;;;;;;;10.80;2.87;;;;;;;;;;5070027;28;20399;-82
2023/11/26 01:48:32;;;;;;;7.90;3.53;;;;;;;;;;5070258;28;20344;-82
2023/11/26 01:50:57;;;;;;;9.20;2.83;;;;;;;;;;5073694;28;20013;-81
2023/11/26 01:53:23;;;;;;;10.50;3.63;;;;;;;;;;5069548;28;20134;-82
2023/11/26 01:55:48;;;;;;;8.20;3.10;;;;;;;;;;5073569;28;20531;-81
2023/11/26 01:58:14;;;;;;;11.90;3.17;;;;;;;;;;5073581;28;20090;-82
2023/11/26 02:00:40;;;;;;;10.20;3.50;;;;;;;;;;5073820;28;20051;-82
2023/11/26 02:03:06;;;;;;;10.53;3.47;;;;;;;;;;5074709;28;20051;-82
2023/11/26 02:05:31;;;;;;;13.33;3.07;;;;;;;;;;5073484;28;20031;-82
2023/11/26 02:07:57;;;;;;;11.93;3.23;;;;;;;;;;5072909;28;20028;-82
2023/11/26 02:10:23;;;;;;;12.60;3.67;;;;;;;;;;5073067;28;20029;-82
2023/11/26 02:13:02;;;;;;;9.23;3.63;;;;;;;;;;5073193;28;20020;-81
2023/11/26 02:15:27;;;;;;;10.30;3.57;;;;;;;;;;5073378;28;20448;-82
2023/11/26 02:17:52;;;;;;;9.67;3.30;;;;;;;;;;5073202;28;20063;-82
2023/11/26 02:20:17;;;;;;;9.83;3.60;;;;;;;;;;5073276;28;20044;-82
2023/11/26 02:22:42;;;;;;;12.00;3.77;;;;;;;;;;5073005;28;20098;-82
2023/11/26 02:25:09;;;;;;;11.13;3.33;;;;;;;;;;5073047;28;20380;-81
2023/11/26 02:27:34;;;;;;;6.30;3.10;;;;;;;;;;5064119;28;20075;-81
2023/11/26 02:29:59;;;;;;;9.70;3.13;;;;;;;;;;5067098;28;20024;-82
2023/11/26 02:32:24;;;;;;;8.83;3.23;;;;;;;;;;5059863;28;20028;-81
2023/11/26 02:34:50;;;;;;;15.60;3.43;;;;;;;;;;5074473;28;20032;-82
2023/11/26 02:37:15;;;;;;;12.47;3.70;;;;;;;;;;5072762;28;20024;-82
2023/11/26 02:39:40;;;;;;;12.83;3.87;;;;;;;;;;5072757;28;20024;-82
2023/11/26 02:42:06;;;;;;;11.00;3.93;;;;;;;;;;5074145;28;20139;-81
2023/11/26 02:44:31;;;;;;;15.20;3.37;;;;;;;;;;5072509;28;20052;-82
2023/11/26 02:46:56;;;;;;;8.53;3.13;;;;;;;;;;5072632;28;20085;-81
2023/11/26 02:49:22;;;;;;;9.20;3.30;;;;;;;;;;5072783;28;20403;-81
2023/11/26 02:51:47;;;;;;;9.23;3.53;;;;;;;;;;5073993;28;20020;-82
2023/11/26 02:54:13;;;;;;;8.17;2.93;;;;;;;;;;5072503;28;20074;-82
2023/11/26 02:56:44;;;;;;;18.53;3.13;;;;;;;;;;5072501;28;20016;-82
2023/11/26 02:59:12;;;;;;;8.87;3.07;;;;;;;;;;5072311;28;20104;-81
2023/11/26 03:01:38;;;;;;;6.97;3.03;;;;;;;;;;5072326;28;20016;-82
2023/11/26 03:04:04;;;;;;;13.30;3.00;;;;;;;;;;5072251;28;20093;-81
2023/11/26 03:06:31;;;;;;;11.47;3.40;;;;;;;;;;5072412;28;20025;-82
2023/11/26 03:09:37;;;;;;;7.43;2.97;;;;;;;;;;5073738;28;20095;-82
2023/11/26 03:14:41;;;;;;;11.97;3.00;;;;;;;;;;5073413;28;20039;-81
2023/11/26 03:17:06;;;;;;;13.30;3.60;;;;;;;;;;5072054;28;20099;-82
2023/11/26 03:19:32;;;;;;;10.07;2.70;;;;;;;;;;5071979;28;20428;-81
2023/11/26 03:21:59;;;;;;;9.83;3.10;;;;;;;;;;5071826;28;20026;-82
2023/11/26 03:24:24;;;;;;;10.30;3.13;;;;;;;;;;5071734;28;20116;-81
2023/11/26 03:26:49;;;;;;;9.90;3.10;;;;;;;;;;5058719;28;20425;-81
2023/11/26 03:29:15;;;;;;;7.53;2.93;;;;;;;;;;5071805;28;20024;-82
2023/11/26 03:31:41;;;;;;;13.37;2.87;;;;;;;;;;5073330;28;20146;-81
2023/11/26 03:34:08;;;;;;;8.40;2.93;;;;;;;;;;5071838;28;20024;-81
2023/11/26 03:36:37;;;;;;;10.80;3.00;;;;;;;;;;5071454;28;20034;-81
2023/11/26 03:39:02;;;;;;;15.23;3.10;;;;;;;;;;5071282;28;20017;-82
2023/11/26 03:41:28;;;;;;;13.30;3.17;;;;;;;;;;5071690;28;20035;-82
2023/11/26 03:43:53;;;;;;;9.23;3.27;;;;;;;;;;5071499;28;20139;-81
2023/11/26 03:46:18;;;;;;;10.77;3.13;;;;;;;;;;5071699;28;20153;-82
2023/11/26 03:48:45;;;;;;;12.03;2.97;;;;;;;;;;5071317;28;20369;-82
2023/11/26 03:51:17;;;;;;;8.17;3.43;;;;;;;;;;5072863;28;20098;-82
2023/11/26 03:53:42;;;;;;;9.32;3.35;;;;;;;;;;5071468;28;20441;-80
2023/11/26 03:56:08;;;;;;;7.90;2.90;;;;;;;;;;5071392;28;20040;-82
2023/11/26 03:58:33;;;;;;;12.27;3.00;;;;;;;;;;5071316;28;20028;-82
2023/11/26 04:00:58;;;;;;;9.63;3.37;;;;;;;;;;5071196;28;20074;-81
2023/11/26 04:03:23;;;;;;;10.50;3.57;;;;;;;;;;5064471;28;20083;-81
2023/11/26 04:05:48;;;;;;;17.30;4.30;;;;;;;;;;5068264;28;20145;-82
2023/11/26 04:08:14;;;;;;;11.37;3.43;;;;;;;;;;5072734;28;20028;-81
2023/11/26 04:10:39;;;;;;;6.73;3.27;;;;;;;;;;5072002;28;20052;-82
2023/11/26 04:13:05;;;;;;;9.33;2.97;;;;;;;;;;5070497;28;20044;-81
2023/11/26 04:15:31;;;;;;;9.33;3.20;;;;;;;;;;5070419;28;20420;-81
2023/11/26 04:17:57;;;;;;;10.10;3.30;;;;;;;;;;5070902;28;20012;-82
2023/11/26 04:20:22;;;;;;;8.50;3.07;;;;;;;;;;5070952;28;20103;-81
2023/11/26 04:22:47;;;;;;;10.80;2.73;;;;;;;;;;5070982;28;20443;-82
2023/11/26 04:25:14;;;;;;;9.27;3.00;;;;;;;;;;5067208;28;20074;-82
2023/11/26 04:27:40;;;;;;;13.37;3.67;;;;;;;;;;5060794;28;20389;-81
2023/11/26 04:30:07;;;;;;;9.10;3.17;;;;;;;;;;5070888;28;20102;-81
2023/11/26 04:32:32;;;;;;;10.97;2.97;;;;;;;;;;5070730;28;20432;-82
2023/11/26 04:34:57;;;;;;;8.83;3.00;;;;;;;;;;5072218;28;20039;-81
2023/11/26 04:37:23;;;;;;;10.20;3.07;;;;;;;;;;5070652;28;20028;-81
2023/11/26 04:39:49;;;;;;;7.67;3.97;;;;;;;;;;5070701;28;20024;-82
2023/11/26 04:42:15;;;;;;;7.63;2.83;;;;;;;;;;5070606;28;20027;-82
2023/11/26 04:44:42;;;;;;;7.23;3.07;;;;;;;;;;5070852;28;20158;-82
2023/11/26 04:47:08;;;;;;;9.70;3.50;;;;;;;;;;5070700;28;20089;-81
2023/11/26 04:49:34;;;;;;;13.33;2.77;;;;;;;;;;5070798;28;20048;-82
2023/11/26 04:51:59;;;;;;;9.90;3.10;;;;;;;;;;5070614;28;20035;-82
2023/11/26 04:54:26;;;;;;;18.73;3.63;;;;;;;;;;5070756;28;20400;-82
2023/11/26 04:56:52;;;;;;;9.30;3.30;;;;;;;;;;5072023;28;20051;-82
2023/11/26 04:59:17;;;;;;;9.20;2.97;;;;;;;;;;5070541;28;20020;-82
2023/11/26 05:01:44;;;;;;;7.93;2.53;;;;;;;;;;5070686;28;20024;-82
2023/11/26 05:04:10;;;;;;;13.73;3.03;;;;;;;;;;5071894;28;20021;-81
2023/11/26 05:06:35;;;;;;;8.87;2.60;;;;;;;;;;5070511;28;20024;-82
2023/11/26 05:09:01;;;;;;;6.93;2.20;;;;;;;;;;5070353;28;20032;-82
2023/11/26 05:11:26;;;;;;;11.37;2.40;;;;;;;;;;5070531;28;20108;-81
2023/11/26 05:13:51;;;;;;;12.77;2.90;;;;;;;;;;5070428;28;20467;-82
2023/11/26 05:16:16;;;;;;;9.37;2.97;;;;;;;;;;5070711;28;20475;-81
2023/11/26 05:18:42;;;;;;;8.90;2.63;;;;;;;;;;5071840;28;20410;-82
2023/11/26 05:21:07;;;;;;;11.33;2.93;;;;;;;;;;5060840;28;20416;-82
2023/11/26 05:23:34;;;;;;;7.30;3.10;;;;;;;;;;5070526;28;20036;-82
2023/11/26 05:26:00;;;;;;;8.63;3.33;;;;;;;;;;5062175;28;20028;-82
2023/11/26 05:28:25;;;;;;;3.90;1.80;;;;;;;;;;5070109;28;20055;-81
2023/11/26 05:30:50;;;;;;;8.90;2.53;;;;;;;;;;5074141;28;20059;-81
2023/11/26 05:33:15;;;;;;;4.97;2.20;;;;;;;;;;5074146;28;20024;-81
2023/11/26 05:35:41;;;;;;;8.53;2.17;;;;;;;;;;5073742;28;20021;-82
2023/11/26 05:38:06;;;;;;;7.83;2.30;;;;;;;;;;5074075;28;20077;-82
2023/11/26 05:40:31;;;;;;;7.20;2.50;;;;;;;;;;5073853;28;20099;-82
2023/11/26 05:42:57;;;;;;;8.50;2.33;;;;;;;;;;5074011;28;20043;-81
2023/11/26 05:45:22;;;;;;;13.20;2.60;;;;;;;;;;5073525;28;20052;-82
2023/11/26 05:47:47;;;;;;;10.53;2.37;;;;;;;;;;5073869;28;20029;-82
2023/11/26 05:50:13;;;;;;;12.60;2.97;;;;;;;;;;5074125;28;20025;-82
2023/11/26 05:52:41;;;;;;;8.47;3.07;;;;;;;;;;5073709;28;20394;-81
2023/11/26 05:55:07;;;;;;;7.67;2.60;;;;;;;;;;5073646;28;20024;-82
2023/11/26 05:57:32;;;;;;;13.27;3.03;;;;;;;;;;5073079;28;20371;-82
2023/11/26 05:59:57;;;;;;;6.57;2.27;;;;;;;;;;5075039;28;20017;-82
2023/11/26 06:02:22;;;;;;;5.60;2.03;;;;;;;;;;5073500;28;20050;-82
2023/11/26 06:04:48;;;;;;;8.30;2.80;;;;;;;;;;5074911;28;20012;-82
2023/11/26 06:07:13;;;;;;;5.13;1.90;;;;;;;;;;5073550;28;20056;-82
2023/11/26 06:09:38;;;;;;;7.77;2.00;;;;;;;;;;5073457;28;20024;-82
2023/11/26 06:12:04;;;;;;;6.40;2.40;;;;;;;;;;5073262;28;20052;-81
2023/11/26 06:14:29;;;;;;;10.40;2.78;;;;;;;;;;5073127;28;20036;-81
2023/11/26 06:16:54;;;;;;;9.83;3.43;;;;;;;;;;5073243;28;20112;-81
2023/11/26 06:19:19;;;;;;;10.10;2.83;;;;;;;;;;5073205;28;20008;-82
2023/11/26 06:21:46;;;;;;;10.63;3.13;;;;;;;;;;5073130;28;20027;-82
2023/11/26 06:24:12;;;;;;;10.40;4.13;;;;;;;;;;5073280;28;20111;-82
2023/11/26 06:26:38;;;;;;;12.60;3.73;;;;;;;;;;5058705;28;20118;-81
2023/11/26 06:29:03;;;;;;;10.43;3.50;;;;;;;;;;5073151;28;20119;-81
2023/11/26 06:31:29;;;;;;;9.10;3.30;;;;;;;;;;5073130;28;20032;-82
2023/11/26 06:33:55;;;;;;;9.97;3.50;;;;;;;;;;5072870;28;20026;-82
2023/11/26 06:36:22;;;;;;;6.93;3.10;;;;;;;;;;5072919;28;20279;-82
2023/11/26 06:38:47;;;;;;;7.13;2.93;;;;;;;;;;5072073;28;20483;-81
2023/11/26 06:41:23;;;;;;;9.73;3.93;;;;;;;;;;5074077;28;20052;-82
2023/11/26 06:43:49;;;;;;;10.40;2.73;;;;;;;;;;5074088;28;20136;-81
2023/11/26 06:46:18;;;;;;;14.93;3.03;;;;;;;;;;5072715;28;20464;-82
2023/11/26 06:48:46;;;;;;;8.03;2.83;;;;;;;;;;5072638;28;20385;-81
2023/11/26 06:51:12;;;;;;;7.17;2.77;;;;;;;;;;5072629;28;20025;-82
2023/11/26 06:53:37;;;;;;;6.90;2.20;;;;;;;;;;5072673;28;20032;-82
2023/11/26 06:56:02;;;;;;;8.77;2.80;;;;;;;;;;5072325;28;20059;-81
2023/11/26 06:58:27;;;;;;;9.70;3.30;;;;;;;;;;5072573;28;20033;-82
2023/11/26 07:00:53;;;;;;;5.20;1.77;;;;;;;;;;5072343;28;20024;-82
2023/11/26 07:03:18;;;;;;;7.37;2.33;;;;;;;;;;5072520;28;20013;-82
2023/11/26 07:05:43;;;;;;;8.40;2.70;;;;;;;;;;5072384;28;20017;-82
2023/11/26 07:08:08;;;;;;;10.27;2.57;;;;;;;;;;5072370;28;20012;-81
2023/11/26 07:10:35;;;;;;;7.70;2.30;;;;;;;;;;5073634;28;20095;-82
2023/11/26 07:13:00;;;;;;;7.53;2.07;;;;;;;;;;5069107;28;20380;-82
2023/11/26 07:15:25;;;;;;;8.87;2.47;;;;;;;;;;5071244;28;20151;-81
2023/11/26 07:17:51;;;;;;;8.33;2.30;;;;;;;;;;5071855;28;20028;-80
2023/11/26 07:20:17;;;;;;;8.50;2.63;;;;;;;;;;5071358;28;20024;-82
2023/11/26 07:22:42;;;;;;;5.97;2.30;;;;;;;;;;5071298;28;20464;-81
2023/11/26 07:25:08;;;;;;;11.43;2.20;;;;;;;;;;5068860;28;20023;-82
2023/11/26 07:27:33;;;;;;;4.37;1.77;;;;;;;;;;5055677;28;20487;-82
2023/11/26 07:29:58;;;;;;;6.07;2.20;;;;;;;;;;5065858;28;20024;-81
2023/11/26 07:32:26;;;;;;;6.60;2.00;;;;;;;;;;5063614;28;20440;-82
2023/11/26 07:34:51;;;;;;;7.17;2.33;;;;;;;;;;5063015;28;20496;-82
2023/11/26 07:37:17;;;;;;;6.60;2.50;;;;;;;;;;5057289;28;20079;-82
2023/11/26 07:39:42;;;;;;;11.27;2.33;;;;;;;;;;5063319;28;20020;-82
2023/11/26 07:42:07;;;;;;;5.77;2.30;;;;;;;;;;5062609;28;20025;-82
2023/11/26 07:44:33;;;;;;;6.50;2.50;;;;;;;;;;5059211;28;20111;-82
2023/11/26 07:47:01;;;;;;;11.93;2.77;;;;;;;;;;5057423;28;20406;-82
2023/11/26 07:49:29;;;;;;;11.57;2.83;;;;;;;;;;5053851;28;20361;-81
2023/11/26 07:51:54;;;;;;;6.77;2.27;;;;;;;;;;5056386;28;20028;-81
2023/11/26 07:54:19;;;;;;;6.53;2.57;;;;;;;;;;5055046;28;20021;-81
2023/11/26 07:56:44;;;;;;;7.80;3.00;;;;;;;;;;5059087;28;20039;-82
2023/11/26 07:59:10;;;;;;;7.57;2.87;;;;;;;;;;5067771;28;20120;-81
2023/11/26 08:01:36;;;;;;;7.73;2.60;;;;;;;;;;5067797;28;20028;-81
2023/11/26 08:04:01;;;;;;;8.90;3.10;;;;;;;;;;5069259;28;20024;-81
2023/11/26 08:06:26;;;;;;;9.07;2.97;;;;;;;;;;5065043;28;20087;-81
2023/11/26 08:08:53;;;;;;;10.53;3.70;;;;;;;;;;5071869;28;20345;-82
2023/11/26 08:11:19;;;;;;;15.63;3.63;;;;;;;;;;5060202;28;20025;-82
2023/11/26 08:13:45;;;;;;;9.70;3.33;;;;;;;;;;5056889;28;20541;-82
2023/11/26 08:16:13;;;;;;;7.87;3.37;;;;;;;;;;5056192;28;20025;-81
2023/11/26 08:18:41;;;;;;;7.70;2.80;;;;;;;;;;5059090;28;20104;-82
2023/11/26 08:21:06;;;;;;;9.07;3.40;;;;;;;;;;5061975;28;20024;-82
2023/11/26 08:23:40;;;;;;;9.60;3.33;;;;;;;;;;5054711;28;20431;-82
2023/11/26 08:26:09;;;;;;;9.70;3.27;;;;;;;;;;5066829;28;20028;-82
2023/11/26 08:28:34;;;;;;;7.83;3.10;;;;;;;;;;5070074;28;20048;-82
2023/11/26 08:31:00;;;;;;;6.33;2.77;;;;;;;;;;5095249;28;20056;-82
2023/11/26 08:33:30;;;;;;;7.93;3.10;;;;;;;;;;5070755;28;20020;-82
2023/11/26 08:35:59;;;;;;;11.90;3.83;;;;;;;;;;5072367;28;20306;-82
2023/11/26 08:38:24;;;;;;;7.10;3.37;;;;;;;;;;5070727;28;20455;-81
2023/11/26 08:47:08;;;;;;;8.77;3.37;;;;;;;;;;5066664;28;20605;-81
2023/11/26 08:49:34;;;;;;;10.10;3.50;;;;;;;;;;5061463;28;20156;-82
2023/11/26 08:52:00;;;;;;;7.27;3.00;;;;;;;;;;5065924;28;20065;-82
2023/11/26 08:54:25;;;;;;;10.83;3.33;;;;;;;;;;5069437;28;20024;-82
2023/11/26 08:56:50;;;;;;;8.37;3.30;;;;;;;;;;5066695;28;20029;-82
2023/11/26 08:59:16;;;;;;;11.70;3.30;;;;;;;;;;5070659;28;20103;-81
2023/11/26 09:01:41;;;;;;;13.90;4.83;;;;;;;;;;5073528;28;20482;-82
2023/11/26 09:04:07;;;;;;;8.57;3.63;;;;;;;;;;5073194;28;20020;-82
2023/11/26 09:06:32;;;;;;;12.17;4.23;;;;;;;;;;5074248;28;20025;-82
2023/11/26 09:08:57;;;;;;;9.67;4.07;;;;;;;;;;5074460;28;20020;-82
2023/11/26 09:11:22;;;;;;;9.50;3.00;;;;;;;;;;5074314;28;20020;-82
2023/11/26 09:13:51;;;;;;;11.93;4.00;;;;;;;;;;5065674;28;20036;-81
2023/11/26 09:16:17;;;;;;;11.50;4.20;;;;;;;;;;5070601;28;20387;-81
2023/11/26 09:18:43;;;;;;;14.67;3.43;;;;;;;;;;5074565;28;20021;-83
2023/11/26 09:21:10;;;;;;;11.50;3.63;;;;;;;;;;5073811;28;20033;-82
2023/11/26 09:23:36;;;;;;;10.67;4.30;;;;;;;;;;5067600;28;20476;-82
2023/11/26 09:26:01;;;;;;;8.63;3.70;;;;;;;;;;5080627;28;20029;-83
2023/11/26 09:28:26;;;;;;;10.60;4.00;;;;;;;;;;5073812;28;20105;-82
2023/11/26 09:30:51;;;;;;;10.70;3.50;;;;;;;;;;5074224;28;20017;-82
2023/11/26 09:33:17;;;;;;;7.70;3.27;;;;;;;;;;5073507;28;20391;-83
2023/11/26 09:35:42;;;;;;;15.80;4.53;;;;;;;;;;5074105;28;20394;-82
2023/11/26 09:38:08;;;;;;;10.20;4.20;;;;;;;;;;5073242;28;20029;-82
2023/11/26 09:40:39;;;;;;;10.83;4.70;;;;;;;;;;5075519;28;20040;-83
2023/11/26 09:43:04;;;;;;;14.53;3.87;;;;;;;;;;5073962;28;20062;-82
2023/11/26 09:45:29;;;;;;;10.23;3.50;;;;;;;;;;5073997;28;20032;-83
2023/11/26 09:47:54;;;;;;;11.43;3.57;;;;;;;;;;5074496;28;20032;-83
2023/11/26 09:50:20;;;;;;;9.87;4.23;;;;;;;;;;5073837;28;20029;-83
2023/11/26 09:52:47;;;;;;;11.03;4.23;;;;;;;;;;5073505;28;20099;-82
2023/11/26 09:55:12;;;;;;;8.30;4.10;;;;;;;;;;5073694;28;20028;-82
2023/11/26 09:57:39;;;;;;;9.00;3.60;;;;;;;;;;5072591;28;20032;-82
2023/11/26 10:00:06;;;;;;;11.37;4.63;;;;;;;;;;5073537;28;20191;-82
2023/11/26 10:02:32;;;;;;;11.83;4.03;;;;;;;;;;5072789;28;20029;-82
2023/11/26 10:04:57;;;;;;;10.20;4.30;;;;;;;;;;5072585;28;20375;-83
2023/11/26 10:07:38;;;;;;;18.10;3.97;;;;;;;;;;5072970;28;20028;-82
2023/11/26 10:10:07;;;;;;;10.37;4.60;;;;;;;;;;5073251;28;20044;-82
2023/11/26 10:12:48;;;;;;;6.93;3.53;;;;;;;;;;5071974;28;20111;-82
2023/11/26 10:15:13;;;;;;;19.43;4.40;;;;;;;;;;5097776;28;20028;-82
2023/11/26 10:17:38;;;;;;;11.00;4.40;;;;;;;;;;5072511;28;20345;-82
2023/11/26 10:20:15;;;;;;;12.57;3.53;;;;;;;;;;5069038;28;20112;-82
2023/11/26 10:22:46;;;;;;;21.53;5.10;;;;;;;;;;5072553;28;20387;-82
2023/11/26 10:25:12;;;;;;;12.52;4.43;;;;;;;;;;5072950;28;20024;-82
2023/11/26 10:27:38;;;;;;;13.47;4.30;;;;;;;;;;5073155;28;20051;-82
2023/11/26 10:30:07;;;;;;;13.40;5.30;;;;;;;;;;5073179;28;20337;-83
2023/11/26 10:32:32;;;;;;;11.60;4.80;;;;;;;;;;5066305;28;20067;-82
2023/11/26 10:34:59;;;;;;;12.70;5.00;;;;;;;;;;5072241;28;20119;-82
2023/11/26 10:37:24;;;;;;;15.80;5.67;;;;;;;;;;5072539;28;20111;-82
2023/11/26 10:39:53;;;;;;;14.13;4.63;;;;;;;;;;5072509;28;20111;-82
2023/11/26 10:42:19;;;;;;;14.37;5.10;;;;;;;;;;5072298;28;20025;-82
2023/11/26 10:44:45;;;;;;;14.20;5.00;;;;;;;;;;5073921;28;20017;-82
2023/11/26 10:47:11;;;;;;;8.10;3.90;;;;;;;;;;5073982;28;20017;-82
2023/11/26 10:49:40;;;;;;;18.17;4.60;;;;;;;;;;5073448;28;20028;-83
2023/11/26 10:52:08;;;;;;;11.13;4.70;;;;;;;;;;5066196;28;20025;-83
2023/11/26 10:54:53;;;;;;;16.20;4.80;;;;;;;;;;5072773;28;20103;-82
2023/11/26 10:57:32;;;;;;;14.73;4.93;;;;;;;;;;5056506;28;20085;-83
2023/11/26 11:00:00;;;;;;;16.30;5.20;;;;;;;;;;5069217;28;20498;-82
2023/11/26 11:02:25;;;;;;;18.83;5.87;;;;;;;;;;5072378;28;20018;-82
2023/11/26 11:04:51;;;;;;;12.50;5.30;;;;;;;;;;5072306;28;20052;-82
2023/11/26 11:07:16;;;;;;;13.33;4.80;;;;;;;;;;5071893;28;20388;-83
2023/11/26 11:10:02;;;;;;;11.47;5.10;;;;;;;;;;5071876;28;20061;-83
2023/11/26 11:12:32;;;;;;;19.10;5.90;;;;;;;;;;5070980;28;20360;-83
2023/11/26 11:14:58;;;;;;;12.20;5.03;;;;;;;;;;5072223;28;20392;-82
2023/11/26 11:17:27;;;;;;;22.47;7.13;;;;;;;;;;5071939;28;20029;-82
2023/11/26 11:19:54;;;;;;;15.43;7.50;;;;;;;;;;5070511;28;20028;-83
2023/11/26 11:22:31;;;;;;;17.83;7.33;;;;;;;;;;5071862;28;20074;-83
2023/11/26 11:25:04;;;;;;;16.27;6.17;;;;;;;;;;5073142;28;20100;-83
2023/11/26 11:27:48;;;;;;;13.73;5.57;;;;;;;;;;5071896;28;20020;-83
2023/11/26 11:30:32;;;;;;;18.93;6.27;;;;;;;;;;5065789;28;20215;-83
2023/11/26 11:33:04;;;;;;;20.00;8.00;;;;;;;;;;5071946;28;20024;-82
2023/11/26 11:35:29;;;;;;;;;;;;;;;;;;5072078;28;20048;-82
2023/11/26 11:38:10;;;;;;;19.23;6.75;;;;;;;;;;5071767;28;20003;-83
2023/11/26 11:40:54;;;;;;;14.57;6.23;;;;;;;;;;5068327;28;20113;-82
2023/11/26 11:43:19;;;;;;;15.97;7.10;;;;;;;;;;5082689;28;20476;-82
2023/11/26 11:45:44;;;;;;;19.53;6.13;;;;;;;;;;5067561;28;20012;-82
2023/11/26 11:48:09;;;;;;;13.73;7.47;;;;;;;;;;5063682;28;20017;-83
2023/11/26 11:50:36;;;;;;;20.37;7.27;;;;;;;;;;5060664;28;20024;-83
2023/11/26 11:53:01;;;;;;;21.20;6.27;;;;;;;;;;5061021;28;20127;-82
2023/11/26 11:55:34;;;;;;;17.87;7.10;;;;;;;;;;5056769;28;20056;-82
2023/11/26 11:58:09;;;;;;;19.83;6.37;;;;;;;;;;5066216;28;20063;-83
2023/11/26 12:00:34;;;;;;;18.60;6.60;;;;;;;;;;5071076;28;20490;-83
2023/11/26 12:03:00;;;;;;;14.73;6.47;;;;;;;;;;5070878;28;20016;-83
2023/11/26 12:05:26;;;;;;;22.07;6.57;;;;;;;;;;5071113;28;20464;-82
2023/11/26 12:07:52;;;;;;;15.83;6.50;;;;;;;;;;5090875;28;20111;-82
2023/11/26 12:10:21;;;;;;;19.10;7.77;;;;;;;;;;5072675;28;20443;-82
2023/11/26 12:12:58;;;;;;;21.37;8.80;;;;;;;;;;5071117;28;20031;-82
2023/11/26 12:15:23;;;;;;;14.70;7.00;;;;;;;;;;5071537;28;20502;-82
2023/11/26 12:17:48;;;;;;;18.83;6.60;;;;;;;;;;5071050;28;20016;-83
2023/11/26 12:20:13;;;;;;;20.57;7.10;;;;;;;;;;5067759;28;20024;-82
2023/11/26 12:22:45;;;;;;;21.57;6.83;;;;;;;;;;5070771;28;20024;-82
2023/11/26 12:25:11;;;;;;;14.27;6.78;;;;;;;;;;5071222;28;20017;-81
2023/11/26 12:27:37;;;;;;;19.03;6.97;;;;;;;;;;5070622;28;20097;-82
2023/11/26 12:30:13;;;;;;;14.70;6.30;;;;;;;;;;5070920;28;20100;-83
2023/11/26 12:32:40;;;;;;;23.43;7.43;;;;;;;;;;5070575;28;20115;-82
2023/11/26 12:35:10;;;;;;;18.27;6.83;;;;;;;;;;5074249;28;20044;-83
2023/11/26 12:37:35;;;;;;;25.53;7.20;;;;;;;;;;5070513;28;20089;-83
2023/11/26 12:40:01;;;;;;;21.57;5.67;;;;;;;;;;5070876;28;20028;-83
2023/11/26 12:42:26;;;;;;;14.47;5.73;;;;;;;;;;5070912;28;20464;-82
2023/11/26 12:44:52;;;;;;;20.93;5.90;;;;;;;;;;5070838;28;20028;-82
2023/11/26 12:47:17;;;;;;;17.97;5.87;;;;;;;;;;5070763;28;20021;-83
2023/11/26 12:49:55;;;;;;;21.90;6.72;;;;;;;;;;5070706;28;20191;-83
2023/11/26 12:52:20;;;;;;;16.63;6.05;;;;;;;;;;5070154;28;20031;-83
2023/11/26 12:54:46;;;;;;;17.80;5.87;;;;;;;;;;5068199;28;20376;-82
2023/11/26 12:57:11;;;;;;;15.20;4.53;;;;;;;;;;5064372;28;20067;-80
2023/11/26 12:59:46;;;;;;;16.80;5.27;;;;;;;;;;5061663;28;20067;-80
2023/11/26 13:02:12;;;;;;;14.47;5.37;;;;;;;;;;5052521;28;20017;-79
2023/11/26 13:04:37;;;;;;;14.93;5.03;;;;;;;;;;5054390;28;20433;-80
2023/11/26 13:10:44;;;;;;;13.03;4.83;;;;;;;;;;5065550;28;20019;-79
2023/11/26 13:13:11;;;;;;;14.00;4.53;;;;;;;;;;5069423;28;20538;-80
2023/11/26 13:15:36;;;;;;;11.40;4.83;;;;;;;;;;5065970;28;20044;-80
2023/11/26 13:18:01;;;;;;;18.27;5.23;;;;;;;;;;5071605;28;20032;-80
2023/11/26 13:20:27;;;;;;;15.00;5.07;;;;;;;;;;5066129;28;20115;-80
2023/11/26 13:22:54;;;;;;;11.03;4.10;;;;;;;;;;5065676;28;20025;-80
2023/11/26 13:25:20;;;;;;;13.80;4.80;;;;;;;;;;5061391;28;20024;-80
2023/11/26 13:27:45;;;;;;;11.00;4.43;;;;;;;;;;5068097;28;20024;-80
2023/11/26 13:30:11;;;;;;;18.83;4.65;;;;;;;;;;5050070;28;20039;-79
2023/11/26 13:32:36;;;;;;;11.20;3.40;;;;;;;;;;5063638;28;20025;-79
2023/11/26 13:35:01;;;;;;;16.20;4.20;;;;;;;;;;5066771;28;20031;-79
2023/11/26 13:37:27;;;;;;;14.37;4.20;;;;;;;;;;5070088;28;20056;-78
2023/11/26 13:39:52;;;;;;;14.20;3.97;;;;;;;;;;5069292;28;20379;-78
2023/11/26 13:42:17;;;;;;;13.88;4.05;;;;;;;;;;5069272;28;20024;-79
2023/11/26 13:44:42;;;;;;;11.00;3.67;;;;;;;;;;5063786;28;20081;-79
2023/11/26 13:47:07;;;;;;;14.77;4.53;;;;;;;;;;5071420;28;20111;-79
2023/11/26 13:49:33;;;;;;;11.50;4.20;;;;;;;;;;5072855;28;20417;-79
2023/11/26 13:52:00;;;;;;;13.07;3.90;;;;;;;;;;5072592;28;20017;-79
2023/11/26 13:54:25;;;;;;;17.77;4.13;;;;;;;;;;5072624;28;20017;-79
2023/11/26 13:56:50;;;;;;;14.70;4.23;;;;;;;;;;5072124;28;20585;-79
2023/11/26 13:59:17;;;;;;;12.95;3.95;;;;;;;;;;5072701;28;20449;-79
2023/11/26 14:01:43;;;;;;;14.38;4.55;;;;;;;;;;5072510;28;20334;-79
2023/11/26 14:04:08;;;;;;;16.63;5.07;;;;;;;;;;5072502;28;20028;-79
2023/11/26 14:06:33;;;;;;;10.53;4.27;;;;;;;;;;5072540;28;20031;-79
2023/11/26 14:08:58;;;;;;;16.98;4.07;;;;;;;;;;5073630;28;20063;-79
2023/11/26 14:11:25;;;;;;;17.90;4.33;;;;;;;;;;5071346;28;20426;-79
2023/11/26 14:13:50;;;;;;;15.77;4.33;;;;;;;;;;5072000;28;20452;-79
2023/11/26 14:16:15;;;;;;;13.05;3.92;;;;;;;;;;5071894;28;20028;-79
2023/11/26 14:18:40;;;;;;;12.67;4.57;;;;;;;;;;5071974;28;20507;-79
2023/11/26 14:21:06;;;;;;;15.00;4.47;;;;;;;;;;5060643;28;20039;-79
2023/11/26 14:23:31;;;;;;;9.10;3.73;;;;;;;;;;5063328;28;20021;-79
2023/11/26 14:25:56;;;;;;;14.93;3.27;;;;;;;;;;5071551;28;20023;-79
2023/11/26 14:28:22;;;;;;;16.33;5.07;;;;;;;;;;5071907;28;20036;-79
2023/11/26 14:30:48;;;;;;;14.27;4.33;;;;;;;;;;5072915;28;20020;-79
2023/11/26 14:33:13;;;;;;;17.57;4.37;;;;;;;;;;5072000;28;20376;-78
2023/11/26 14:35:39;;;;;;;14.87;4.37;;;;;;;;;;5072927;28;20116;-79
2023/11/26 14:38:08;;;;;;;14.50;4.63;;;;;;;;;;5071443;28;20020;-79
2023/11/26 14:40:36;;;;;;;13.90;3.90;;;;;;;;;;5073039;28;20008;-79
2023/11/26 14:43:02;;;;;;;13.20;4.37;;;;;;;;;;5071568;28;20013;-79
2023/11/26 14:45:27;;;;;;;8.37;3.63;;;;;;;;;;5072042;28;20422;-79